sensor_id;sensor_type;location;lat;lon;timestamp;pressure;altitude;pressure_sealevel;temperature
84287;BMP280;74445;55.252;61.092;2023-12-20T00:00:20;142792.94;;;-9.57
84287;BMP280;74445;55.252;61.092;2023-12-20T00:02:47;142782.06;;;-9.61
84287;BMP280;74445;55.252;61.092;2023-12-20T00:05:14;142756.81;;;-9.72
84287;BMP280;74445;55.252;61.092;2023-12-20T00:07:40;142741.16;;;-9.78
84287;BMP280;74445;55.252;61.092;2023-12-20T00:10:09;142725.53;;;-9.85
84287;BMP280;74445;55.252;61.092;2023-12-20T00:12:36;142709.84;;;-9.91
84287;BMP280;74445;55.252;61.092;2023-12-20T00:15:03;142694.22;;;-9.97
84287;BMP280;74445;55.252;61.092;2023-12-20T00:17:30;142673.81;;;-10.06
84287;BMP280;74445;55.252;61.092;2023-12-20T00:19:57;142659.34;;;-10.12
84287;BMP280;74445;55.252;61.092;2023-12-20T00:22:24;142644.91;;;-10.18
84287;BMP280;74445;55.252;61.092;2023-12-20T00:24:50;142635.34;;;-10.22
84287;BMP280;74445;55.252;61.092;2023-12-20T00:27:19;142631.72;;;-10.23
84287;BMP280;74445;55.252;61.092;2023-12-20T00:29:45;142623.31;;;-10.27
84287;BMP280;74445;55.252;61.092;2023-12-20T00:32:15;142612.47;;;-10.31
84287;BMP280;74445;55.252;61.092;2023-12-20T00:34:43;142601.66;;;-10.36
84287;BMP280;74445;55.252;61.092;2023-12-20T00:37:10;142586.00;;;-10.42
84287;BMP280;74445;55.252;61.092;2023-12-20T00:39:37;142570.38;;;-10.49
84287;BMP280;74445;55.252;61.092;2023-12-20T00:42:04;142563.16;;;-10.52
84287;BMP280;74445;55.252;61.092;2023-12-20T00:44:32;142560.75;;;-10.53
84287;BMP280;74445;55.252;61.092;2023-12-20T00:46:59;142558.34;;;-10.54
84287;BMP280;74445;55.252;61.092;2023-12-20T00:49:26;142558.34;;;-10.54
84287;BMP280;74445;55.252;61.092;2023-12-20T00:51:53;142566.75;;;-10.50
84287;BMP280;74445;55.252;61.092;2023-12-20T00:54:19;142575.19;;;-10.47
84287;BMP280;74445;55.252;61.092;2023-12-20T00:56:46;142599.25;;;-10.37
84287;BMP280;74445;55.252;61.092;2023-12-20T00:59:13;142607.66;;;-10.33
84287;BMP280;74445;55.252;61.092;2023-12-20T01:01:42;142623.31;;;-10.27
84287;BMP280;74445;55.252;61.092;2023-12-20T01:04:09;142622.09;;;-10.27
84287;BMP280;74445;55.252;61.092;2023-12-20T01:09:32;142588.41;;;-10.41
84287;BMP280;74445;55.252;61.092;2023-12-20T01:11:59;142594.44;;;-10.39
84287;BMP280;74445;55.252;61.092;2023-12-20T01:14:26;142600.44;;;-10.36
84287;BMP280;74445;55.252;61.092;2023-12-20T01:16:54;142598.03;;;-10.37
84287;BMP280;74445;55.252;61.092;2023-12-20T01:19:20;142598.03;;;-10.37
84287;BMP280;74445;55.252;61.092;2023-12-20T01:21:47;142592.03;;;-10.40
84287;BMP280;74445;55.252;61.092;2023-12-20T01:24:13;142578.78;;;-10.45
84287;BMP280;74445;55.252;61.092;2023-12-20T01:26:40;142571.56;;;-10.48
84287;BMP280;74445;55.252;61.092;2023-12-20T01:29:06;142581.19;;;-10.44
84287;BMP280;74445;55.252;61.092;2023-12-20T01:31:33;142582.41;;;-10.44
84287;BMP280;74445;55.252;61.092;2023-12-20T01:34:01;142576.38;;;-10.46
84287;BMP280;74445;55.252;61.092;2023-12-20T01:36:27;142569.16;;;-10.49
84287;BMP280;74445;55.252;61.092;2023-12-20T01:38:53;142565.56;;;-10.51
84287;BMP280;74445;55.252;61.092;2023-12-20T01:41:20;142565.56;;;-10.51
84287;BMP280;74445;55.252;61.092;2023-12-20T01:43:46;142572.78;;;-10.48
84287;BMP280;74445;55.252;61.092;2023-12-20T01:46:13;142575.19;;;-10.47
84287;BMP280;74445;55.252;61.092;2023-12-20T01:48:40;142606.47;;;-10.34
84287;BMP280;74445;55.252;61.092;2023-12-20T01:51:09;142630.53;;;-10.24
84287;BMP280;74445;55.252;61.092;2023-12-20T01:53:37;142664.16;;;-10.10
84287;BMP280;74445;55.252;61.092;2023-12-20T01:56:04;142685.84;;;-10.01
84287;BMP280;74445;55.252;61.092;2023-12-20T01:58:31;142706.25;;;-9.93
84287;BMP280;74445;55.252;61.092;2023-12-20T02:00:57;142727.94;;;-9.84
84287;BMP280;74445;55.252;61.092;2023-12-20T02:03:24;142752.00;;;-9.74
84287;BMP280;74445;55.252;61.092;2023-12-20T02:05:51;142767.63;;;-9.67
84287;BMP280;74445;55.252;61.092;2023-12-20T02:08:19;142784.47;;;-9.60
84287;BMP280;74445;55.252;61.092;2023-12-20T02:10:46;142800.16;;;-9.54
84287;BMP280;74445;55.252;61.092;2023-12-20T02:13:13;142820.59;;;-9.45
84287;BMP280;74445;55.252;61.092;2023-12-20T02:15:39;142845.91;;;-9.35
84287;BMP280;74445;55.252;61.092;2023-12-20T02:18:08;142844.69;;;-9.35
84287;BMP280;74445;55.252;61.092;2023-12-20T02:20:35;142839.84;;;-9.37
84287;BMP280;74445;55.252;61.092;2023-12-20T02:23:03;142842.28;;;-9.36
84287;BMP280;74445;55.252;61.092;2023-12-20T02:25:29;142844.69;;;-9.35
84287;BMP280;74445;55.252;61.092;2023-12-20T02:27:55;142856.72;;;-9.30
84287;BMP280;74445;55.252;61.092;2023-12-20T02:30:22;142875.97;;;-9.22
84287;BMP280;74445;55.252;61.092;2023-12-20T02:32:49;142890.44;;;-9.16
84287;BMP280;74445;55.252;61.092;2023-12-20T02:35:16;142908.53;;;-9.09
84287;BMP280;74445;55.252;61.092;2023-12-20T02:37:42;142943.44;;;-8.94
84287;BMP280;74445;55.252;61.092;2023-12-20T02:40:10;142981.97;;;-8.78
84287;BMP280;74445;55.252;61.092;2023-12-20T02:42:37;143020.53;;;-8.63
84287;BMP280;74445;55.252;61.092;2023-12-20T02:45:04;143062.69;;;-8.45
84287;BMP280;74445;55.252;61.092;2023-12-20T02:47:31;143107.28;;;-8.27
84287;BMP280;74445;55.252;61.092;2023-12-20T02:49:57;143149.41;;;-8.09
84287;BMP280;74445;55.252;61.092;2023-12-20T02:52:24;143186.81;;;-7.94
84287;BMP280;74445;55.252;61.092;2023-12-20T02:54:51;143216.94;;;-7.81
84287;BMP280;74445;55.252;61.092;2023-12-20T02:57:19;143235.03;;;-7.74
84287;BMP280;74445;55.252;61.092;2023-12-20T02:59:45;143265.16;;;-7.61
84287;BMP280;74445;55.252;61.092;2023-12-20T03:02:11;143290.47;;;-7.51
84287;BMP280;74445;55.252;61.092;2023-12-20T03:04:38;143307.34;;;-7.44
84287;BMP280;74445;55.252;61.092;2023-12-20T03:07:04;143342.38;;;-7.30
84287;BMP280;74445;55.252;61.092;2023-12-20T03:09:31;143365.25;;;-7.20
84287;BMP280;74445;55.252;61.092;2023-12-20T03:11:57;143380.97;;;-7.14
84287;BMP280;74445;55.252;61.092;2023-12-20T03:14:25;143394.22;;;-7.08
84287;BMP280;74445;55.252;61.092;2023-12-20T03:16:51;143397.81;;;-7.06
84287;BMP280;74445;55.252;61.092;2023-12-20T03:19:18;143408.66;;;-7.01
84287;BMP280;74445;55.252;61.092;2023-12-20T03:21:47;143406.25;;;-7.02
84287;BMP280;74445;55.252;61.092;2023-12-20T03:24:14;143402.66;;;-7.04
84287;BMP280;74445;55.252;61.092;2023-12-20T03:26:40;143431.63;;;-6.92
84287;BMP280;74445;55.252;61.092;2023-12-20T03:29:06;143409.88;;;-7.01
84287;BMP280;74445;55.252;61.092;2023-12-20T03:31:34;143431.63;;;-6.92
84287;BMP280;74445;55.252;61.092;2023-12-20T03:34:01;143427.97;;;-6.93
84287;BMP280;74445;55.252;61.092;2023-12-20T03:36:27;143427.97;;;-6.93
84287;BMP280;74445;55.252;61.092;2023-12-20T03:38:54;143446.09;;;-6.86
84287;BMP280;74445;55.252;61.092;2023-12-20T03:41:20;143449.69;;;-6.84
84287;BMP280;74445;55.252;61.092;2023-12-20T03:43:46;143151.81;;;-6.78
84287;BMP280;74445;55.252;61.092;2023-12-20T03:46:13;143159.03;;;-6.75
84287;BMP280;74445;55.252;61.092;2023-12-20T03:48:41;143173.50;;;-6.69
84287;BMP280;74445;55.252;61.092;2023-12-20T03:51:07;143179.50;;;-6.66
84287;BMP280;74445;55.252;61.092;2023-12-20T03:53:34;143206.00;;;-6.55
84287;BMP280;74445;55.252;61.092;2023-12-20T03:56:00;142891.13;;;-6.56
84287;BMP280;74445;55.252;61.092;2023-12-20T03:58:27;142905.56;;;-6.50
84287;BMP280;74445;55.252;61.092;2023-12-20T04:00:54;142922.38;;;-6.43
84287;BMP280;74445;55.252;61.092;2023-12-20T04:03:20;142602.59;;;-6.45
84287;BMP280;74445;55.252;61.092;2023-12-20T04:05:49;142625.38;;;-6.36
84287;BMP280;74445;55.252;61.092;2023-12-20T04:08:16;142641.00;;;-6.29
84287;BMP280;74445;55.252;61.092;2023-12-20T04:10:42;142648.19;;;-6.26
84287;BMP280;74445;55.252;61.092;2023-12-20T04:13:08;142352.28;;;-6.19
84287;BMP280;74445;55.252;61.092;2023-12-20T04:15:35;142378.63;;;-6.08
84287;BMP280;74445;55.252;61.092;2023-12-20T04:18:02;142409.78;;;-5.95
84287;BMP280;74445;55.252;61.092;2023-12-20T04:20:28;142123.28;;;-5.84
84287;BMP280;74445;55.252;61.092;2023-12-20T04:22:57;141501.09;;;-5.81
84287;BMP280;74445;55.252;61.092;2023-12-20T04:25:23;140880.09;;;-5.78
84287;BMP280;74445;55.252;61.092;2023-12-20T04:27:50;140910.84;;;-5.65
84287;BMP280;74445;55.252;61.092;2023-12-20T04:30:16;140594.34;;;-5.66
84287;BMP280;74445;55.252;61.092;2023-12-20T04:32:43;140283.78;;;-5.65
84287;BMP280;74445;55.252;61.092;2023-12-20T04:35:09;140310.88;;;-5.53
84287;BMP280;74445;55.252;61.092;2023-12-20T04:37:36;139702.50;;;-5.45
84287;BMP280;74445;55.252;61.092;2023-12-20T04:40:05;138772.59;;;-5.39
84287;BMP280;74445;55.252;61.092;2023-12-20T04:42:32;138783.13;;;-5.35
84287;BMP280;74445;55.252;61.092;2023-12-20T04:45:00;138474.63;;;-5.32
84287;BMP280;74445;55.252;61.092;2023-12-20T04:47:26;137536.38;;;-5.30
84287;BMP280;74445;55.252;61.092;2023-12-20T04:49:52;137241.72;;;-5.22
84287;BMP280;74445;55.252;61.092;2023-12-20T04:52:19;137241.72;;;-5.22
84287;BMP280;74445;55.252;61.092;2023-12-20T04:54:45;137260.19;;;-5.14
84287;BMP280;74445;55.252;61.092;2023-12-20T04:57:14;136655.56;;;-5.03
84287;BMP280;74445;55.252;61.092;2023-12-20T04:59:41;135728.25;;;-4.97
84287;BMP280;74445;55.252;61.092;2023-12-20T05:02:08;134789.38;;;-4.95
84287;BMP280;74445;55.252;61.092;2023-12-20T05:04:34;134193.16;;;-4.80
84287;BMP280;74445;55.252;61.092;2023-12-20T05:07:01;132645.03;;;-4.69
84287;BMP280;74445;55.252;61.092;2023-12-20T05:09:27;131402.16;;;-4.62
84287;BMP280;74445;55.252;61.092;2023-12-20T05:11:54;130143.66;;;-4.62
84287;BMP280;74445;55.252;61.092;2023-12-20T05:14:21;129204.16;;;-4.60
84287;BMP280;74445;55.252;61.092;2023-12-20T05:16:48;128893.91;;;-4.58
84287;BMP280;74445;55.252;61.092;2023-12-20T05:19:14;126850.00;;;-4.54
84287;BMP280;74445;55.252;61.092;2023-12-20T05:21:41;125793.75;;;-4.53
84287;BMP280;74445;55.252;61.092;2023-12-20T05:24:07;124795.00;;;-4.40
84287;BMP280;74445;55.252;61.092;2023-12-20T05:26:34;124626.38;;;-4.36
84287;BMP280;74445;55.252;61.092;2023-12-20T05:29:00;121269.41;;;-4.34
84287;BMP280;74445;55.252;61.092;2023-12-20T05:31:28;119780.75;;;-4.29
84287;BMP280;74445;55.252;61.092;2023-12-20T05:33:55;117026.34;;;-4.25
84287;BMP280;74445;55.252;61.092;2023-12-20T05:36:21;115818.44;;;-4.14
84287;BMP280;74445;55.252;61.092;2023-12-20T05:38:48;117387.97;;;-3.92
84287;BMP280;74445;55.252;61.092;2023-12-20T05:41:14;114370.63;;;-3.74
84287;BMP280;74445;55.252;61.092;2023-12-20T05:43:41;111490.19;;;-3.52
84287;BMP280;74445;55.252;61.092;2023-12-20T05:46:10;107031.44;;;-3.24
84287;BMP280;74445;55.252;61.092;2023-12-20T05:48:38;102629.34;;;-2.76
84287;BMP280;74445;55.252;61.092;2023-12-20T05:51:04;97332.34;;;-2.50
84287;BMP280;74445;55.252;61.092;2023-12-20T05:53:31;92212.84;;;-2.34
84287;BMP280;74445;55.252;61.092;2023-12-20T05:55:58;87948.72;;;-2.38
84287;BMP280;74445;55.252;61.092;2023-12-20T05:58:24;81934.56;;;-2.46
84287;BMP280;74445;55.252;61.092;2023-12-20T06:00:51;80001.50;;;-2.47
84287;BMP280;74445;55.252;61.092;2023-12-20T06:03:17;76949.72;;;-2.58
84287;BMP280;74445;55.252;61.092;2023-12-20T06:05:45;77651.81;;;-2.60
84287;BMP280;74445;55.252;61.092;2023-12-20T06:08:12;77331.06;;;-2.69
84287;BMP280;74445;55.252;61.092;2023-12-20T06:10:38;77079.56;;;-2.71
84287;BMP280;74445;55.252;61.092;2023-12-20T06:13:05;76582.03;;;-2.77
84287;BMP280;74445;55.252;61.092;2023-12-20T06:15:32;77214.72;;;-2.81
84287;BMP280;74445;55.252;61.092;2023-12-20T06:17:59;78478.19;;;-2.77
84287;BMP280;74445;55.252;61.092;2023-12-20T06:20:26;77780.59;;;-2.87
84287;BMP280;74445;55.252;61.092;2023-12-20T06:22:54;78378.69;;;-2.85
84287;BMP280;74445;55.252;61.092;2023-12-20T06:25:20;79014.44;;;-2.83
84287;BMP280;74445;55.252;61.092;2023-12-20T06:27:47;79027.56;;;-2.86
84287;BMP280;74445;55.252;61.092;2023-12-20T06:30:13;78657.97;;;-2.83
84287;BMP280;74445;55.252;61.092;2023-12-20T06:32:40;79292.22;;;-2.78
84287;BMP280;74445;55.252;61.092;2023-12-20T06:35:09;80363.06;;;-2.91
84287;BMP280;74445;55.252;61.092;2023-12-20T06:37:35;83451.16;;;-2.97
84287;BMP280;74445;55.252;61.092;2023-12-20T06:40:04;87939.34;;;-2.90
84287;BMP280;74445;55.252;61.092;2023-12-20T06:42:31;89749.88;;;-2.90
84287;BMP280;74445;55.252;61.092;2023-12-20T06:44:58;88470.25;;;-2.87
84287;BMP280;74445;55.252;61.092;2023-12-20T06:47:25;88600.06;;;-2.88
84287;BMP280;74445;55.252;61.092;2023-12-20T06:49:52;106103.88;;;-2.88
84287;BMP280;74445;55.252;61.092;2023-12-20T06:52:19;131771.09;;;-2.96
84287;BMP280;74445;55.252;61.092;2023-12-20T06:54:46;134289.31;;;-2.99
84287;BMP280;74445;55.252;61.092;2023-12-20T06:57:14;136822.38;;;-2.95
84287;BMP280;74445;55.252;61.092;2023-12-20T06:59:41;137748.06;;;-3.04
84287;BMP280;74445;55.252;61.092;2023-12-20T07:02:08;140582.59;;;-3.06
84287;BMP280;74445;55.252;61.092;2023-12-20T07:04:39;139012.28;;;-3.03
84287;BMP280;74445;55.252;61.092;2023-12-20T07:07:05;138063.53;;;-3.04
84287;BMP280;74445;55.252;61.092;2023-12-20T07:09:33;137748.06;;;-3.04
84287;BMP280;74445;55.252;61.092;2023-12-20T07:12:00;136816.59;;;-2.97
84287;BMP280;74445;55.252;61.092;2023-12-20T07:14:28;133365.34;;;-2.89
84287;BMP280;74445;55.252;61.092;2023-12-20T07:16:55;131781.09;;;-2.92
84287;BMP280;74445;55.252;61.092;2023-12-20T07:19:22;135571.75;;;-2.90
84287;BMP280;74445;55.252;61.092;2023-12-20T07:21:48;143124.38;;;-2.98
84287;BMP280;74445;55.252;61.092;2023-12-20T07:24:15;143768.69;;;-2.93
84287;BMP280;74445;55.252;61.092;2023-12-20T07:26:41;142529.22;;;-2.83
84287;BMP280;74445;55.252;61.092;2023-12-20T07:29:09;142205.28;;;-2.87
84287;BMP280;74445;55.252;61.092;2023-12-20T07:31:38;139707.72;;;-2.75
84287;BMP280;74445;55.252;61.092;2023-12-20T07:34:04;139700.66;;;-2.78
84287;BMP280;74445;55.252;61.092;2023-12-20T07:36:31;138446.44;;;-2.75
84287;BMP280;74445;55.252;61.092;2023-12-20T07:38:58;139082.34;;;-2.73
84287;BMP280;74445;55.252;61.092;2023-12-20T07:41:25;140006.88;;;-2.82
84287;BMP280;74445;55.252;61.092;2023-12-20T07:43:52;141258.56;;;-2.87
84287;BMP280;74445;55.252;61.092;2023-12-20T07:46:21;140944.16;;;-2.86
84287;BMP280;74445;55.252;61.092;2023-12-20T07:48:52;142807.69;;;-2.99
84287;BMP280;74445;55.252;61.092;2023-12-20T07:51:18;144357.41;;;-3.10
84287;BMP280;74445;55.252;61.092;2023-12-20T07:53:45;144048.00;;;-3.08
84287;BMP280;74445;55.252;61.092;2023-12-20T07:56:15;143419.47;;;-3.07
84287;BMP280;74445;55.252;61.092;2023-12-20T07:58:42;143069.16;;;-3.21
84287;BMP280;74445;55.252;61.092;2023-12-20T08:01:08;144311.41;;;-3.29
84287;BMP280;74445;55.252;61.092;2023-12-20T08:03:35;144276.31;;;-3.44
84287;BMP280;74445;55.252;61.092;2023-12-20T08:06:04;144287.22;;;-3.40
84287;BMP280;74445;55.252;61.092;2023-12-20T08:08:31;144301.72;;;-3.33
84287;BMP280;74445;55.252;61.092;2023-12-20T08:10:58;143686.72;;;-3.27
84287;BMP280;74445;55.252;61.092;2023-12-20T08:13:26;143963.44;;;-3.43
84287;BMP280;74445;55.252;61.092;2023-12-20T08:15:53;144266.66;;;-3.49
84287;BMP280;74445;55.252;61.092;2023-12-20T08:18:22;144283.63;;;-3.42
84287;BMP280;74445;55.252;61.092;2023-12-20T08:20:49;144283.56;;;-3.41
84287;BMP280;74445;55.252;61.092;2023-12-20T08:23:20;144288.41;;;-3.39
84287;BMP280;74445;55.252;61.092;2023-12-20T08:25:50;143952.53;;;-3.47
84287;BMP280;74445;55.252;61.092;2023-12-20T08:28:16;144261.78;;;-3.50
84287;BMP280;74445;55.252;61.092;2023-12-20T08:30:43;144264.25;;;-3.50
84287;BMP280;74445;55.252;61.092;2023-12-20T08:33:09;144240.03;;;-3.60
84287;BMP280;74445;55.252;61.092;2023-12-20T08:35:39;144237.63;;;-3.61
84287;BMP280;74445;55.252;61.092;2023-12-20T08:38:06;144220.69;;;-3.68
84287;BMP280;74445;55.252;61.092;2023-12-20T08:40:34;144198.91;;;-3.77
84287;BMP280;74445;55.252;61.092;2023-12-20T08:43:01;144208.56;;;-3.73
84287;BMP280;74445;55.252;61.092;2023-12-20T08:45:27;144198.91;;;-3.77
84287;BMP280;74445;55.252;61.092;2023-12-20T08:47:54;144198.91;;;-3.77
84287;BMP280;74445;55.252;61.092;2023-12-20T08:50:20;144204.91;;;-3.74
84287;BMP280;74445;55.252;61.092;2023-12-20T08:52:47;144213.41;;;-3.71
84287;BMP280;74445;55.252;61.092;2023-12-20T08:55:14;144198.91;;;-3.77
84287;BMP280;74445;55.252;61.092;2023-12-20T08:57:44;144203.75;;;-3.75
84287;BMP280;74445;55.252;61.092;2023-12-20T09:00:12;144223.09;;;-3.67
84287;BMP280;74445;55.252;61.092;2023-12-20T09:02:39;144223.09;;;-3.67
84287;BMP280;74445;55.252;61.092;2023-12-20T09:05:06;144218.25;;;-3.69
84287;BMP280;74445;55.252;61.092;2023-12-20T09:07:33;144211.00;;;-3.72
84287;BMP280;74445;55.252;61.092;2023-12-20T09:10:00;144219.44;;;-3.68
84287;BMP280;74445;55.252;61.092;2023-12-20T09:12:26;144226.72;;;-3.65
84287;BMP280;74445;55.252;61.092;2023-12-20T09:14:55;144237.63;;;-3.61
84287;BMP280;74445;55.252;61.092;2023-12-20T09:17:21;144237.63;;;-3.61
84287;BMP280;74445;55.252;61.092;2023-12-20T09:19:49;144258.19;;;-3.52
84287;BMP280;74445;55.252;61.092;2023-12-20T09:22:16;144259.41;;;-3.52
84287;BMP280;74445;55.252;61.092;2023-12-20T09:24:42;144257.00;;;-3.53
84287;BMP280;74445;55.252;61.092;2023-12-20T09:27:08;144257.00;;;-3.53
84287;BMP280;74445;55.252;61.092;2023-12-20T09:29:35;144261.84;;;-3.51
84287;BMP280;74445;55.252;61.092;2023-12-20T09:32:04;144263.00;;;-3.50
84287;BMP280;74445;55.252;61.092;2023-12-20T09:34:30;144264.25;;;-3.50
84287;BMP280;74445;55.252;61.092;2023-12-20T09:36:57;144276.34;;;-3.45
84287;BMP280;74445;55.252;61.092;2023-12-20T09:39:23;144283.63;;;-3.42
84287;BMP280;74445;55.252;61.092;2023-12-20T09:42:00;144306.56;;;-3.31
84287;BMP280;74445;55.252;61.092;2023-12-20T09:44:28;144002.09;;;-3.27
84287;BMP280;74445;55.252;61.092;2023-12-20T09:46:55;144306.56;;;-3.31
84287;BMP280;74445;55.252;61.092;2023-12-20T09:49:24;144310.22;;;-3.30
84287;BMP280;74445;55.252;61.092;2023-12-20T09:51:52;144315.06;;;-3.28
84287;BMP280;74445;55.252;61.092;2023-12-20T09:54:21;144016.59;;;-3.21
84287;BMP280;74445;55.252;61.092;2023-12-20T09:56:48;143698.78;;;-3.22
84287;BMP280;74445;55.252;61.092;2023-12-20T09:59:14;143691.53;;;-3.25
84287;BMP280;74445;55.252;61.092;2023-12-20T10:01:41;144003.28;;;-3.26
84287;BMP280;74445;55.252;61.092;2023-12-20T10:04:10;144313.81;;;-3.28
84287;BMP280;74445;55.252;61.092;2023-12-20T10:06:40;144315.06;;;-3.28
84287;BMP280;74445;55.252;61.092;2023-12-20T10:09:06;144319.91;;;-3.26
84287;BMP280;74445;55.252;61.092;2023-12-20T10:11:33;144310.22;;;-3.30
84287;BMP280;74445;55.252;61.092;2023-12-20T10:14:00;144002.09;;;-3.27
84287;BMP280;74445;55.252;61.092;2023-12-20T10:16:27;144041.94;;;-3.10
84287;BMP280;74445;55.252;61.092;2023-12-20T10:18:54;142788.50;;;-3.07
84287;BMP280;74445;55.252;61.092;2023-12-20T10:21:22;143402.63;;;-3.14
84287;BMP280;74445;55.252;61.092;2023-12-20T10:23:50;143714.41;;;-3.15
84287;BMP280;74445;55.252;61.092;2023-12-20T10:26:19;143707.19;;;-3.18
84287;BMP280;74445;55.252;61.092;2023-12-20T10:28:50;143071.56;;;-3.20
84287;BMP280;74445;55.252;61.092;2023-12-20T10:31:26;143065.56;;;-3.23
84287;BMP280;74445;55.252;61.092;2023-12-20T10:33:55;143055.97;;;-3.27
84287;BMP280;74445;55.252;61.092;2023-12-20T10:36:23;143048.75;;;-3.30
84287;BMP280;74445;55.252;61.092;2023-12-20T10:38:52;143046.38;;;-3.31
84287;BMP280;74445;55.252;61.092;2023-12-20T10:41:24;143675.84;;;-3.31
84287;BMP280;74445;55.252;61.092;2023-12-20T10:43:51;143982.75;;;-3.35
84287;BMP280;74445;55.252;61.092;2023-12-20T10:46:18;143669.84;;;-3.34
84287;BMP280;74445;55.252;61.092;2023-12-20T10:48:47;143353.28;;;-3.34
84287;BMP280;74445;55.252;61.092;2023-12-20T10:51:17;143687.91;;;-3.26
84287;BMP280;74445;55.252;61.092;2023-12-20T10:53:45;143041.56;;;-3.33
84287;BMP280;74445;55.252;61.092;2023-12-20T10:56:16;143042.75;;;-3.32
84287;BMP280;74445;55.252;61.092;2023-12-20T10:58:45;142421.63;;;-3.28
84287;BMP280;74445;55.252;61.092;2023-12-20T11:01:12;142406.09;;;-3.35
84287;BMP280;74445;55.252;61.092;2023-12-20T11:03:43;143019.97;;;-3.42
84287;BMP280;74445;55.252;61.092;2023-12-20T11:06:26;142408.50;;;-3.34
84287;BMP280;74445;55.252;61.092;2023-12-20T11:09:01;141767.09;;;-3.38
84287;BMP280;74445;55.252;61.092;2023-12-20T11:11:48;141129.38;;;-3.41
84287;BMP280;74445;55.252;61.092;2023-12-20T11:14:22;141439.91;;;-3.43
84287;BMP280;74445;55.252;61.092;2023-12-20T11:16:50;141734.97;;;-3.52
84287;BMP280;74445;55.252;61.092;2023-12-20T11:19:17;142348.72;;;-3.59
84287;BMP280;74445;55.252;61.092;2023-12-20T11:21:46;142665.13;;;-3.58
84287;BMP280;74445;55.252;61.092;2023-12-20T11:24:12;142653.13;;;-3.63
84287;BMP280;74445;55.252;61.092;2023-12-20T11:26:46;143275.13;;;-3.67
84287;BMP280;74445;55.252;61.092;2023-12-20T11:29:35;143287.16;;;-3.62
84287;BMP280;74445;55.252;61.092;2023-12-20T11:32:28;143276.28;;;-3.66
84287;BMP280;74445;55.252;61.092;2023-12-20T11:34:55;143273.91;;;-3.67
84287;BMP280;74445;55.252;61.092;2023-12-20T11:37:28;142957.56;;;-3.68
84287;BMP280;74445;55.252;61.092;2023-12-20T11:40:00;142946.72;;;-3.72
84287;BMP280;74445;55.252;61.092;2023-12-20T11:42:33;143272.72;;;-3.68
84287;BMP280;74445;55.252;61.092;2023-12-20T11:45:02;142339.19;;;-3.63
84287;BMP280;74445;55.252;61.092;2023-12-20T11:47:30;142651.97;;;-3.64
84287;BMP280;74445;55.252;61.092;2023-12-20T11:49:57;142332.00;;;-3.66
84287;BMP280;74445;55.252;61.092;2023-12-20T11:52:26;142326.00;;;-3.68
84287;BMP280;74445;55.252;61.092;2023-12-20T11:54:53;142645.97;;;-3.66
84287;BMP280;74445;55.252;61.092;2023-12-20T11:57:20;142649.56;;;-3.65
84287;BMP280;74445;55.252;61.092;2023-12-20T11:59:50;142661.53;;;-3.60
84287;BMP280;74445;55.252;61.092;2023-12-20T12:02:16;142024.00;;;-3.63
84287;BMP280;74445;55.252;61.092;2023-12-20T12:04:43;142335.56;;;-3.64
84287;BMP280;74445;55.252;61.092;2023-12-20T12:07:10;142636.38;;;-3.70
84287;BMP280;74445;55.252;61.092;2023-12-20T12:09:37;142631.59;;;-3.72
84287;BMP280;74445;55.252;61.092;2023-12-20T12:12:07;142950.34;;;-3.71
84287;BMP280;74445;55.252;61.092;2023-12-20T12:14:34;142945.56;;;-3.73
84287;BMP280;74445;55.252;61.092;2023-12-20T12:17:05;143248.66;;;-3.78
84287;BMP280;74445;55.252;61.092;2023-12-20T12:19:31;143569.78;;;-3.75
84287;BMP280;74445;55.252;61.092;2023-12-20T12:22:05;142950.34;;;-3.71
84287;BMP280;74445;55.252;61.092;2023-12-20T12:24:37;143251.06;;;-3.77
84287;BMP280;74445;55.252;61.092;2023-12-20T12:27:06;143254.66;;;-3.75
84287;BMP280;74445;55.252;61.092;2023-12-20T12:29:33;142943.16;;;-3.74
84287;BMP280;74445;55.252;61.092;2023-12-20T12:32:00;142937.13;;;-3.76
84287;BMP280;74445;55.252;61.092;2023-12-20T12:34:29;142632.81;;;-3.72
84287;BMP280;74445;55.252;61.092;2023-12-20T12:36:56;142310.50;;;-3.75
84287;BMP280;74445;55.252;61.092;2023-12-20T12:39:23;142612.44;;;-3.80
84287;BMP280;74445;55.252;61.092;2023-12-20T12:41:53;142622.00;;;-3.76
84287;BMP280;74445;55.252;61.092;2023-12-20T12:44:19;142318.84;;;-3.71
84287;BMP280;74445;55.252;61.092;2023-12-20T12:46:48;142308.09;;;-3.76
84287;BMP280;74445;55.252;61.092;2023-12-20T12:49:19;142310.50;;;-3.75
84287;BMP280;74445;55.252;61.092;2023-12-20T12:51:47;142623.22;;;-3.76
84287;BMP280;74445;55.252;61.092;2023-12-20T12:54:14;142623.22;;;-3.76
84287;BMP280;74445;55.252;61.092;2023-12-20T12:56:43;142653.13;;;-3.63
84287;BMP280;74445;55.252;61.092;2023-12-20T12:59:09;142335.56;;;-3.64
84287;BMP280;74445;55.252;61.092;2023-12-20T13:01:37;141715.94;;;-3.60
84287;BMP280;74445;55.252;61.092;2023-12-20T13:04:05;142016.84;;;-3.66
84287;BMP280;74445;55.252;61.092;2023-12-20T13:06:37;142032.31;;;-3.59
84287;BMP280;74445;55.252;61.092;2023-12-20T13:09:07;141712.34;;;-3.61
84287;BMP280;74445;55.252;61.092;2023-12-20T13:11:35;142012.06;;;-3.68
84287;BMP280;74445;55.252;61.092;2023-12-20T13:14:02;142324.84;;;-3.69
84287;BMP280;74445;55.252;61.092;2023-12-20T13:16:30;142320.06;;;-3.71
84287;BMP280;74445;55.252;61.092;2023-12-20T13:18:57;142312.88;;;-3.74
84287;BMP280;74445;55.252;61.092;2023-12-20T13:21:26;142616.03;;;-3.78
84287;BMP280;74445;55.252;61.092;2023-12-20T13:23:52;142590.94;;;-3.89
84287;BMP280;74445;55.252;61.092;2023-12-20T13:26:21;142611.25;;;-3.80
84287;BMP280;74445;55.252;61.092;2023-12-20T13:28:48;142588.53;;;-3.90
84287;BMP280;74445;55.252;61.092;2023-12-20T13:31:15;142880.75;;;-3.99
84287;BMP280;74445;55.252;61.092;2023-12-20T13:33:41;143168.13;;;-4.11
84287;BMP280;74445;55.252;61.092;2023-12-20T13:36:08;143462.56;;;-4.19
84287;BMP280;74445;55.252;61.092;2023-12-20T13:38:35;143455.34;;;-4.22
84287;BMP280;74445;55.252;61.092;2023-12-20T13:41:02;143765.41;;;-4.24
84287;BMP280;74445;55.252;61.092;2023-12-20T13:43:31;143769.06;;;-4.23
84287;BMP280;74445;55.252;61.092;2023-12-20T13:45:58;143767.81;;;-4.23
84287;BMP280;74445;55.252;61.092;2023-12-20T13:48:25;143766.63;;;-4.24